Airfield :
LOGIN :

Register | Disclaimer

   EN    FR    IT 

 










Legend :    VFR   Marginal VFR   IFR   Intensive IFR   Very Intensive IFR
Visi :
Ceiling :
>= 8 km
>= 3000ft
5 to 8 km
1000 to 3000 ft
1500m to 5 km
500 to 1000 ft
800 to 1500m
200 to 500 ft
< 800m
< 200 ft
Symbols :   Thunderstorms  Fog  Heavy snow  Heavy precipitations  Wind > 20 kt
SIGMETs :     Misc.  Thunderstorms  Icing  Turbulence  Mountain Waves  Volcanic Ashes






- Airport Elevation : 249 ft


EGOS - RAF Shawbury

CURRENT METAR :
  • 270750Z 29007KT 9999 -SHRA FEW012 FEW016TCU SCT018 BKN130 02/02 Q0998 TEMPO 6000 SHRA SCT016TCU RMK WHT TEMPO WHT

EXPIRED METARs :
  • 270650Z 27005KT 9999 -RA FEW005 SCT025 OVC070 02/02 Q0997 RMK BLU
  • 270550Z AUTO 25003KT 9999 -RA BKN050/// 02/01 Q0997

TAF TAF EGOS
Valid from the 27 at 09:00 until the 27 at 18:00 UTC


270734Z 2709/2718 30010KT 9999 -RA BKN025
BECMG 2709/2712 31015G25KT
TEMPO 2709/2713 6000 SHRA SCT015
PROB30
TEMPO 2709/2710 3000 SHRASN SCT010



MET'MAP, your aeronautical weather chart ! - Copyright ORBIFLY December 2007 - Disclaimer

ORBIFLY MET'MAP TEAM :

Programming & Development : Alexandra Zaïnal
Concept & original design : Baudouin d'Aumeries
Assistance for programming : Marc-Olivier Méhu
Technical & hardware support : Manuel Goepfert

Contact : metmap@orbifly.com




SOURCES & CREDITS :

   NOAA